Time;durP1;ratioP1;P1;durP2;ratioP2;P2;SDS_P1;SDS_P2;PMS_P1;PMS_P2;Temp;Humidity;BMP_temperature;BMP_pressure;BME280_temperature;BME280_humidity;BME280_pressure;Samples;Min_cycle;Max_cycle;Signal;HPM_P1;HPM_P2
2022/10/15 00:00:36;;;;;;;1.92;1.10;;;;;;;12.70;100.00;96664.38;5028598;28;20132;-62
2022/10/15 00:03:03;;;;;;;1.55;0.80;;;;;;;12.73;100.00;96666.53;5028433;28;20128;-62
2022/10/15 00:05:29;;;;;;;3.88;0.80;;;;;;;12.73;100.00;96665.72;5023649;28;20508;-62
2022/10/15 00:07:56;;;;;;;2.42;1.00;;;;;;;12.74;100.00;96659.16;5015761;28;20041;-62
2022/10/15 00:10:23;;;;;;;1.80;0.80;;;;;;;12.71;100.00;96657.84;5016561;28;20048;-63
2022/10/15 00:12:49;;;;;;;3.22;1.10;;;;;;;12.72;100.00;96662.16;5020934;28;20076;-63
2022/10/15 00:15:16;;;;;;;2.17;0.93;;;;;;;12.75;100.00;96650.75;5029180;28;20049;-63
2022/10/15 00:17:42;;;;;;;2.65;1.08;;;;;;;12.77;100.00;96658.63;5028530;28;20049;-62
2022/10/15 00:20:10;;;;;;;2.20;0.80;;;;;;;12.77;100.00;96657.78;5028199;28;20101;-63
2022/10/15 00:22:37;;;;;;;2.88;0.75;;;;;;;12.83;100.00;96646.59;5028312;28;20077;-63
2022/10/15 00:25:05;;;;;;;2.78;0.95;;;;;;;12.79;100.00;96653.69;5028614;28;20045;-62
2022/10/15 00:27:33;;;;;;;2.78;1.00;;;;;;;12.80;100.00;96660.78;5028428;28;20051;-63
2022/10/15 00:30:02;;;;;;;1.20;0.80;;;;;;;12.83;100.00;96664.81;5027055;28;20042;-62
2022/10/15 00:32:29;;;;;;;1.52;0.70;;;;;;;12.83;100.00;96657.47;5026972;28;20075;-63
2022/10/15 00:34:56;;;;;;;3.97;1.00;;;;;;;12.84;100.00;96661.00;5027843;28;20055;-62
2022/10/15 00:37:22;;;;;;;2.42;0.90;;;;;;;12.85;100.00;96651.75;5028511;28;20041;-62
2022/10/15 00:39:49;;;;;;;2.42;0.75;;;;;;;12.88;100.00;96660.16;5024947;28;20033;-62
2022/10/15 00:42:16;;;;;;;4.45;1.38;;;;;;;12.88;100.00;96657.44;5017479;28;20561;-62
2022/10/15 00:44:47;;;;;;;4.75;1.17;;;;;;;12.91;100.00;96655.25;5028041;28;20045;-62
2022/10/15 00:47:24;;;;;;;3.30;1.40;;;;;;;12.91;100.00;96655.25;5028499;28;20124;-63
2022/10/15 00:50:08;;;;;;;2.25;0.93;;;;;;;12.93;100.00;96650.34;5026509;28;20120;-63
2022/10/15 00:52:49;;;;;;;1.80;0.80;;;;;;;12.95;100.00;96648.97;5027680;28;20053;-62
2022/10/15 00:55:30;;;;;;;1.55;0.90;;;;;;;12.97;100.00;96644.03;5028338;28;20073;-62
2022/10/15 00:58:06;;;;;;;2.03;0.90;;;;;;;12.99;100.00;96646.47;5028040;28;20072;-62
2022/10/15 01:00:33;;;;;;;1.70;0.90;;;;;;;12.99;100.00;96644.59;5025947;28;20072;-63
2022/10/15 01:03:00;;;;;;;1.42;0.85;;;;;;;12.97;100.00;96640.53;5027814;28;20567;-62
2022/10/15 01:05:27;;;;;;;1.67;0.60;;;;;;;12.98;100.00;96644.88;5027749;28;20037;-62
2022/10/15 01:07:54;;;;;;;1.50;0.55;;;;;;;13.02;100.00;96651.34;5027762;28;20132;-62
2022/10/15 01:10:26;;;;;;;1.85;0.90;;;;;;;13.05;100.00;96634.44;5021074;28;20044;-62
2022/10/15 01:13:07;;;;;;;1.77;0.68;;;;;;;13.05;100.00;96634.44;5026688;28;20069;-62
2022/10/15 01:15:47;;;;;;;1.38;0.63;;;;;;;13.06;100.00;96638.00;5026655;28;20133;-62
2022/10/15 01:18:18;;;;;;;2.33;0.60;;;;;;;13.07;100.00;96635.00;5026211;28;20050;-62
2022/10/15 01:20:55;;;;;;;2.45;0.60;;;;;;;13.07;100.00;96635.00;5025162;28;20076;-62
2022/10/15 01:23:43;;;;;;;1.90;0.80;;;;;;;13.07;100.00;96640.44;5027218;28;20049;-62
2022/10/15 01:26:37;;;;;;;1.95;0.73;;;;;;;13.09;100.00;96638.22;5023182;28;20505;-62
2022/10/15 01:29:29;;;;;;;1.10;0.70;;;;;;;13.08;100.00;96638.53;5026949;28;20037;-62
2022/10/15 01:32:05;;;;;;;1.08;0.52;;;;;;;13.09;100.00;96640.16;5027223;28;20060;-62
2022/10/15 01:34:44;;;;;;;1.02;0.60;;;;;;;13.08;100.00;96639.31;5027112;28;20041;-63
2022/10/15 01:37:23;;;;;;;2.63;0.70;;;;;;;13.10;100.00;96634.44;5027424;28;20567;-63
2022/10/15 01:39:54;;;;;;;3.05;0.50;;;;;;;13.10;100.00;96634.44;5024894;28;20083;-62
2022/10/15 01:42:22;;;;;;;;;;;;;;;13.13;100.00;96636.53;5015490;28;20116;-63
2022/10/15 01:44:55;;;;;;;1.13;0.50;;;;;;;13.14;100.00;96637.38;5059043;28;19921;-62
2022/10/15 01:47:55;;;;;;;0.65;0.30;;;;;;;13.14;100.00;96634.66;5026345;28;20057;-63
2022/10/15 01:50:25;;;;;;;1.63;0.60;;;;;;;13.12;100.00;96628.72;5024504;28;20401;-63
2022/10/15 01:52:54;;;;;;;1.88;0.47;;;;;;;13.10;100.00;96634.44;5025408;28;20271;-62
2022/10/15 01:55:25;;;;;;;1.00;0.52;;;;;;;13.10;100.00;96625.44;5025567;28;20092;-63
2022/10/15 01:57:54;;;;;;;0.40;0.30;;;;;;;13.10;100.00;96628.16;5027030;28;20045;-62
2022/10/15 02:00:20;;;;;;;1.38;0.60;;;;;;;13.13;100.00;96631.13;5024993;28;20053;-63
2022/10/15 02:02:47;;;;;;;2.78;0.40;;;;;;;13.16;100.00;96631.66;5025399;28;20128;-62
2022/10/15 02:05:22;;;;;;;0.90;0.40;;;;;;;13.16;100.00;96637.09;5040901;28;20053;-62
2022/10/15 02:08:03;;;;;;;0.55;0.30;;;;;;;13.19;100.00;96636.53;5025303;28;20099;-62
2022/10/15 02:10:46;;;;;;;1.13;0.43;;;;;;;13.27;100.00;96635.91;5025057;28;20045;-63
2022/10/15 02:13:40;;;;;;;0.70;0.20;;;;;;;13.31;100.00;96638.84;5026526;28;20141;-62
2022/10/15 02:16:12;;;;;;;0.40;0.25;;;;;;;13.36;100.00;96626.00;5015644;28;20085;-62
2022/10/15 02:18:58;;;;;;;0.47;0.20;;;;;;;13.40;100.00;96632.50;5026474;28;20129;-62
2022/10/15 02:21:30;;;;;;;0.73;0.30;;;;;;;13.47;100.00;96632.16;5026220;28;20061;-62
2022/10/15 02:24:13;;;;;;;1.77;0.30;;;;;;;13.48;100.00;96625.63;5024601;28;20398;-62
2022/10/15 02:26:41;;;;;;;1.05;0.20;;;;;;;13.50;100.00;96634.28;5024073;28;20045;-62
2022/10/15 02:29:12;;;;;;;1.00;0.30;;;;;;;13.50;100.00;96628.84;5024655;28;20120;-62
2022/10/15 02:31:42;;;;;;;;;;;;;;;13.51;100.00;96633.22;5025296;28;20065;-62
2022/10/15 02:34:14;;;;;;;0.73;0.20;;;;;;;13.55;100.00;96638.88;5025948;28;20019;-62
2022/10/15 02:36:41;;;;;;;0.63;0.20;;;;;;;13.61;100.00;96645.91;5024034;28;20076;-62
2022/10/15 02:39:17;;;;;;;1.38;0.52;;;;;;;13.60;100.00;96640.75;5024469;28;20037;-62
2022/10/15 02:41:45;;;;;;;0.30;0.20;;;;;;;13.60;100.00;96641.53;5015438;28;20526;-62
2022/10/15 02:44:12;;;;;;;0.57;0.22;;;;;;;13.56;100.00;96643.22;5024540;28;20045;-62
2022/10/15 02:46:38;;;;;;;0.68;0.40;;;;;;;13.54;100.00;96642.69;5025044;28;20038;-62
2022/10/15 02:49:05;;;;;;;0.30;0.00;;;;;;;13.56;100.00;96640.50;5025275;28;20485;-62
2022/10/15 02:51:33;;;;;;;1.40;0.68;;;;;;;13.55;100.00;96640.78;5040251;28;20111;-62
2022/10/15 02:54:01;;;;;;;1.25;0.13;;;;;;;13.52;100.00;96644.88;5026041;28;20046;-62
2022/10/15 02:56:28;;;;;;;0.25;0.10;;;;;;;13.57;100.00;96649.47;5025987;28;20585;-62
2022/10/15 02:58:56;;;;;;;0.35;0.25;;;;;;;13.62;100.00;96657.56;5025786;28;20037;-62
2022/10/15 03:01:22;;;;;;;1.70;0.20;;;;;;;13.55;100.00;96649.75;5023386;28;20077;-62
2022/10/15 03:03:49;;;;;;;0.47;0.20;;;;;;;13.53;100.00;96658.19;5024631;28;20517;-62
2022/10/15 03:06:16;;;;;;;1.08;0.20;;;;;;;13.55;100.00;96654.38;5024279;28;20049;-62
2022/10/15 03:08:43;;;;;;;0.30;0.20;;;;;;;13.50;100.00;96655.25;5020778;28;20140;-62
2022/10/15 03:11:10;;;;;;;0.20;0.10;;;;;;;13.51;100.00;96660.41;5004230;28;20662;-62
2022/10/15 03:13:38;;;;;;;0.75;0.10;;;;;;;13.56;100.00;96653.28;5025238;28;20046;-62
2022/10/15 03:16:05;;;;;;;0.65;0.25;;;;;;;13.61;100.00;96651.34;5040954;28;20136;-62
2022/10/15 03:18:33;;;;;;;0.15;0.10;;;;;;;13.67;100.00;96648.56;5023754;28;20061;-62
2022/10/15 03:21:05;;;;;;;1.08;0.30;;;;;;;13.67;100.00;96646.63;5024172;28;20552;-62
2022/10/15 03:23:31;;;;;;;0.63;0.20;;;;;;;13.69;100.00;96651.78;5024458;28;20049;-62
2022/10/15 03:26:13;;;;;;;0.13;0.10;;;;;;;13.76;100.00;96653.06;5024670;28;20160;-62
2022/10/15 03:28:40;;;;;;;1.08;0.38;;;;;;;13.74;100.00;96668.03;5057506;28;20053;-62
2022/10/15 03:31:06;;;;;;;1.05;0.40;;;;;;;13.76;100.00;96655.78;5024102;28;20450;-62
2022/10/15 03:33:33;;;;;;;1.27;0.45;;;;;;;13.71;100.00;96657.75;5036459;28;20067;-62
2022/10/15 03:36:00;;;;;;;2.75;0.20;;;;;;;13.77;100.00;96660.13;5024561;28;20049;-62
2022/10/15 03:38:27;;;;;;;0.43;0.20;;;;;;;13.74;100.00;96668.84;5026219;28;20080;-62
2022/10/15 03:40:53;;;;;;;1.27;0.20;;;;;;;13.77;100.00;96675.63;5020385;28;20078;-62
2022/10/15 03:43:34;;;;;;;0.60;0.20;;;;;;;13.70;100.00;96670.53;5026465;28;20048;-62
2022/10/15 03:46:06;;;;;;;0.30;0.10;;;;;;;13.70;100.00;96675.97;5028121;28;20100;-62
2022/10/15 03:48:37;;;;;;;1.73;0.13;;;;;;;13.70;100.00;96681.41;5027743;28;20048;-62
2022/10/15 03:51:03;;;;;;;0.63;0.20;;;;;;;13.68;100.00;96677.38;5027999;28;20678;-62
2022/10/15 03:53:30;;;;;;;1.42;0.13;;;;;;;13.70;100.00;96686.03;5028338;28;20049;-62
2022/10/15 03:56:05;;;;;;;0.68;0.20;;;;;;;13.69;100.00;96689.84;5024065;28;20052;-62
2022/10/15 03:58:35;;;;;;;0.57;0.20;;;;;;;13.74;100.00;96687.91;5008266;28;20046;-62
2022/10/15 04:01:15;;;;;;;0.10;0.10;;;;;;;13.78;100.00;96677.22;5006585;28;20038;-62
2022/10/15 04:03:42;;;;;;;0.00;0.00;;;;;;;13.85;100.00;96674.16;5019124;28;20041;-62
2022/10/15 04:06:09;;;;;;;0.55;0.10;;;;;;;13.82;100.00;96677.47;5011460;28;20152;-62
2022/10/15 04:08:37;;;;;;;2.15;0.10;;;;;;;13.85;100.00;96674.16;5027456;28;20057;-62
2022/10/15 04:11:17;;;;;;;0.10;0.00;;;;;;;13.77;100.00;96672.91;5026117;28;20046;-62
2022/10/15 04:13:49;;;;;;;0.50;0.10;;;;;;;13.78;100.00;96671.78;5027555;28;20048;-62
2022/10/15 04:16:16;;;;;;;1.35;0.10;;;;;;;13.75;100.00;96673.19;5027560;28;20051;-62
2022/10/15 04:18:43;;;;;;;0.40;0.10;;;;;;;13.74;100.00;96671.56;5027398;28;20172;-62
2022/10/15 04:21:10;;;;;;;0.05;0.05;;;;;;;13.75;100.00;96677.84;5027001;28;20114;-62
2022/10/15 04:23:39;;;;;;;1.75;0.10;;;;;;;13.79;100.00;96682.38;5027194;28;20045;-62
2022/10/15 04:26:35;;;;;;;0.93;0.10;;;;;;;13.70;100.00;96684.13;5027716;28;20056;-62
2022/10/15 04:29:02;;;;;;;0.10;0.08;;;;;;;13.71;100.00;96679.50;5027015;28;20053;-63
2022/10/15 04:31:29;;;;;;;0.10;0.10;;;;;;;13.76;100.00;96684.88;5042848;28;20041;-62
2022/10/15 04:33:57;;;;;;;1.23;0.13;;;;;;;13.75;100.00;96691.44;5026736;28;20054;-62
2022/10/15 04:36:23;;;;;;;0.00;0.00;;;;;;;13.79;100.00;96690.56;5026963;28;20144;-62
2022/10/15 04:38:55;;;;;;;1.10;0.13;;;;;;;13.87;100.00;96691.03;5028740;28;20060;-62
2022/10/15 04:41:34;;;;;;;0.05;0.03;;;;;;;13.93;100.00;96683.63;5026358;28;20046;-61
2022/10/15 04:44:04;;;;;;;0.70;0.28;;;;;;;13.93;100.00;96687.13;5026260;28;20069;-62
2022/10/15 04:46:31;;;;;;;1.80;0.10;;;;;;;13.94;100.00;96686.03;5026665;28;20111;-62
2022/10/15 04:49:02;;;;;;;1.08;0.20;;;;;;;13.84;100.00;96689.69;5022589;28;20069;-62
2022/10/15 04:51:29;;;;;;;0.20;0.20;;;;;;;13.84;100.00;96694.31;5015482;28;20037;-62
2022/10/15 04:54:12;;;;;;;3.60;0.38;;;;;;;13.83;100.00;96695.44;5015596;28;20042;-62
2022/10/15 04:56:54;;;;;;;0.20;0.20;;;;;;;13.77;100.00;96691.94;5011803;28;20100;-62
2022/10/15 04:59:20;;;;;;;0.45;0.15;;;;;;;13.77;100.00;96689.22;5011831;28;20088;-62
2022/10/15 05:02:06;;;;;;;0.63;0.20;;;;;;;13.82;100.00;96697.31;5029918;28;20124;-62
2022/10/15 05:04:33;;;;;;;7.75;0.85;;;;;;;13.89;100.00;96699.69;5027370;28;20110;-62
2022/10/15 05:07:00;;;;;;;0.30;0.00;;;;;;;13.91;100.00;96708.38;5027506;28;20099;-62
2022/10/15 05:09:26;;;;;;;2.38;0.70;;;;;;;13.94;100.00;96701.56;5031228;28;20073;-62
2022/10/15 05:11:54;;;;;;;0.43;0.15;;;;;;;13.89;100.00;96708.69;5033580;28;20124;-63
2022/10/15 05:14:21;;;;;;;0.90;0.20;;;;;;;13.96;100.00;96716.50;5035211;28;20136;-62
2022/10/15 05:17:03;;;;;;;0.30;0.13;;;;;;;13.99;100.00;96710.47;5024268;28;20528;-62
2022/10/15 05:19:35;;;;;;;0.75;0.10;;;;;;;13.96;100.00;96712.97;5023120;28;20049;-62
2022/10/15 05:22:02;;;;;;;0.45;0.10;;;;;;;13.96;100.00;96721.94;5023680;28;20099;-62
2022/10/15 05:24:30;;;;;;;0.20;0.10;;;;;;;13.95;100.00;96720.31;5023452;28;20060;-62
2022/10/15 05:27:01;;;;;;;0.90;0.22;;;;;;;13.86;100.00;96716.63;5024240;28;20053;-64
2022/10/15 05:29:31;;;;;;;1.58;0.20;;;;;;;13.80;100.00;96724.03;5038775;28;20527;-64
2022/10/15 05:31:58;;;;;;;0.70;0.30;;;;;;;13.78;100.00;96724.31;5013944;28;20103;-62
2022/10/15 05:34:29;;;;;;;0.47;0.22;;;;;;;13.87;100.00;96729.94;5019110;28;20053;-62
2022/10/15 05:37:00;;;;;;;0.75;0.20;;;;;;;13.84;100.00;96730.50;5025494;28;20087;-62
2022/10/15 05:39:26;;;;;;;0.28;0.20;;;;;;;13.91;100.00;96730.16;5023491;28;20049;-63
2022/10/15 05:41:53;;;;;;;0.38;0.20;;;;;;;13.95;100.00;96731.22;5021050;28;20136;-62
2022/10/15 05:44:30;;;;;;;0.45;0.20;;;;;;;13.96;100.00;96729.31;5012537;28;20409;-62
2022/10/15 05:46:57;;;;;;;2.35;0.85;;;;;;;13.98;100.00;96727.09;5023363;28;20049;-63
2022/10/15 05:49:24;;;;;;;0.25;0.20;;;;;;;14.00;100.00;96727.59;5023158;28;20069;-63
2022/10/15 05:51:57;;;;;;;0.40;0.20;;;;;;;13.95;100.00;96733.09;5022362;28;20084;-62
2022/10/15 05:55:02;;;;;;;1.08;0.30;;;;;;;13.95;100.00;96733.09;5009079;28;20061;-62
2022/10/15 05:57:29;;;;;;;2.17;0.75;;;;;;;13.94;100.00;96739.66;5024405;28;20080;-62
2022/10/15 05:59:55;;;;;;;1.55;0.20;;;;;;;14.02;100.00;96745.28;5024103;28;20041;-63
2022/10/15 06:02:21;;;;;;;0.20;0.10;;;;;;;14.03;100.00;96743.34;5022936;28;20052;-62
2022/10/15 06:04:50;;;;;;;0.32;0.20;;;;;;;13.95;100.00;96746.72;5024565;28;20685;-62
2022/10/15 06:07:16;;;;;;;1.55;0.10;;;;;;;13.98;100.00;96755.13;5024456;28;20047;-62
2022/10/15 06:09:43;;;;;;;2.35;0.40;;;;;;;14.00;100.00;96749.38;5024233;28;20129;-62
2022/10/15 06:12:09;;;;;;;0.13;0.10;;;;;;;13.92;100.00;96764.44;5023728;28;20056;-62
2022/10/15 06:14:36;;;;;;;0.57;0.38;;;;;;;13.85;100.00;96762.06;5023223;28;20053;-62
2022/10/15 06:17:05;;;;;;;1.08;0.20;;;;;;;13.87;100.00;96764.50;5024535;28;20053;-62
2022/10/15 06:19:31;;;;;;;0.60;0.25;;;;;;;13.92;100.00;96769.88;5023545;28;20566;-62
2022/10/15 06:21:58;;;;;;;1.27;0.30;;;;;;;13.92;100.00;96769.88;5023859;28;20042;-62
2022/10/15 06:24:24;;;;;;;0.43;0.20;;;;;;;13.84;100.00;96768.59;5024214;28;20193;-63
2022/10/15 06:26:51;;;;;;;0.25;0.22;;;;;;;13.93;100.00;96787.03;5024103;28;20056;-62
2022/10/15 06:29:17;;;;;;;1.20;0.25;;;;;;;13.87;100.00;96778.94;5023415;28;20136;-63
2022/10/15 06:31:43;;;;;;;0.75;0.10;;;;;;;13.93;100.00;96789.75;5023180;28;20045;-62
2022/10/15 06:34:10;;;;;;;1.85;0.25;;;;;;;13.95;100.00;96796.53;5024593;28;20041;-63
2022/10/15 06:36:37;;;;;;;0.13;0.13;;;;;;;14.00;100.00;96801.09;5025799;28;20148;-63
2022/10/15 06:39:03;;;;;;;0.43;0.22;;;;;;;13.96;100.00;96800.06;5022634;28;20053;-62
2022/10/15 06:41:29;;;;;;;1.95;0.47;;;;;;;13.93;100.00;96800.63;5023247;28;20113;-63
2022/10/15 06:43:56;;;;;;;0.10;0.10;;;;;;;13.98;100.00;96806.84;5023993;28;20203;-62
2022/10/15 06:46:22;;;;;;;0.25;0.10;;;;;;;14.05;100.00;96811.94;5023903;28;20607;-62
2022/10/15 06:48:50;;;;;;;0.93;0.30;;;;;;;14.08;100.00;96813.28;5023566;28;20069;-62
2022/10/15 06:51:17;;;;;;;0.68;0.20;;;;;;;14.00;100.00;96811.97;5023292;28;20124;-62
2022/10/15 06:53:48;;;;;;;0.10;0.10;;;;;;;13.97;100.00;96815.28;5024274;28;20041;-63
2022/10/15 06:56:14;;;;;;;2.63;0.40;;;;;;;13.95;100.00;96820.19;5025067;28;20791;-63
2022/10/15 06:58:43;;;;;;;1.00;0.40;;;;;;;14.02;100.00;96829.66;5024759;28;20057;-62
2022/10/15 07:01:10;;;;;;;1.55;0.40;;;;;;;13.96;100.00;96836.25;5025657;28;20037;-62
2022/10/15 07:03:37;;;;;;;0.40;0.20;;;;;;;13.93;100.00;96830.56;5025036;28;20536;-62
2022/10/15 07:06:07;;;;;;;1.13;0.45;;;;;;;13.97;100.00;96837.06;5009969;28;20124;-62
2022/10/15 07:08:35;;;;;;;1.23;0.30;;;;;;;14.03;100.00;96835.91;5006321;28;20076;-62
2022/10/15 07:11:03;;;;;;;1.92;0.57;;;;;;;14.10;100.00;96836.38;5025543;28;20124;-62
2022/10/15 07:13:30;;;;;;;0.50;0.50;;;;;;;14.17;100.00;96838.75;5027511;28;20452;-63
2022/10/15 07:16:06;;;;;;;1.98;0.30;;;;;;;14.12;100.00;96845.06;5029186;28;20475;-63
2022/10/15 07:18:33;;;;;;;1.50;0.40;;;;;;;14.21;100.00;96847.97;5029689;28;20041;-63
2022/10/15 07:21:01;;;;;;;0.45;0.38;;;;;;;14.30;100.00;96843.50;5029055;28;20120;-63
2022/10/15 07:23:28;;;;;;;0.70;0.40;;;;;;;14.28;100.00;96847.63;5029691;28;20519;-63
2022/10/15 07:25:59;;;;;;;3.20;0.90;;;;;;;14.30;100.00;96854.41;5029245;28;20042;-62
2022/10/15 07:28:26;;;;;;;2.88;0.50;;;;;;;14.36;100.00;96854.34;5029777;28;20580;-62
2022/10/15 07:30:52;;;;;;;1.95;0.57;;;;;;;14.31;100.00;96857.94;5028424;28;20037;-63
2022/10/15 07:33:19;;;;;;;1.83;0.70;;;;;;;14.36;100.00;96857.06;5029879;28;20048;-63
2022/10/15 07:35:57;;;;;;;1.75;0.82;;;;;;;14.37;100.00;96861.44;5029220;28;20049;-63
2022/10/15 07:38:24;;;;;;;4.95;0.80;;;;;;;14.43;100.00;96865.72;5029579;28;20049;-63
2022/10/15 07:40:50;;;;;;;1.85;0.85;;;;;;;14.36;100.00;96863.34;5028862;28;20572;-63
2022/10/15 07:43:17;;;;;;;1.60;0.80;;;;;;;14.37;100.00;96859.50;5028948;28;20064;-63
2022/10/15 07:45:47;;;;;;;2.13;0.80;;;;;;;14.42;100.00;96866.81;5029257;28;20050;-63
2022/10/15 07:48:14;;;;;;;1.40;0.80;;;;;;;14.42;100.00;96866.81;5029316;28;20128;-62
2022/10/15 07:50:41;;;;;;;3.75;0.90;;;;;;;14.42;100.00;96870.34;5027908;28;20059;-63
2022/10/15 07:53:08;;;;;;;1.90;0.70;;;;;;;14.38;100.00;96869.28;5028349;28;20457;-62
2022/10/15 07:55:34;;;;;;;3.83;0.82;;;;;;;14.41;100.00;96884.28;5029295;28;20077;-62
2022/10/15 07:58:01;;;;;;;2.13;0.63;;;;;;;14.42;100.00;96880.44;5028999;28;20132;-62
2022/10/15 08:00:27;;;;;;;4.68;1.23;;;;;;;14.42;100.00;96883.16;5028387;28;20057;-63
2022/10/15 08:02:54;;;;;;;2.03;0.85;;;;;;;14.50;100.00;96879.81;5028960;28;20131;-63
2022/10/15 08:05:20;;;;;;;2.28;0.80;;;;;;;14.44;100.00;96884.50;5028564;28;20045;-63
2022/10/15 08:07:46;;;;;;;2.42;1.00;;;;;;;14.43;100.00;96891.03;5028753;28;20041;-63
2022/10/15 08:10:13;;;;;;;2.35;0.80;;;;;;;14.52;100.00;96885.75;5029116;28;20084;-63
2022/10/15 08:12:39;;;;;;;0.98;0.50;;;;;;;14.68;100.00;96880.94;5028561;28;20051;-63
2022/10/15 08:15:07;;;;;;;2.05;0.82;;;;;;;14.56;100.00;96883.28;5029063;28;20492;-63
2022/10/15 08:17:33;;;;;;;17.17;1.25;;;;;;;14.59;100.00;96885.41;5028323;28;20042;-63
2022/10/15 08:19:59;;;;;;;3.22;1.38;;;;;;;14.72;100.00;96896.72;5028575;28;20041;-62
2022/10/15 08:22:26;;;;;;;2.53;0.93;;;;;;;14.67;100.00;96897.59;5028554;28;20045;-63
2022/10/15 08:24:54;;;;;;;1.85;0.65;;;;;;;14.75;100.00;96891.50;5027127;28;20076;-63
2022/10/15 08:27:21;;;;;;;7.90;0.80;;;;;;;14.69;100.00;96884.47;5028880;28;20124;-63
2022/10/15 08:29:55;;;;;;;1.90;0.70;;;;;;;14.63;100.00;96891.91;5027875;28;20088;-63
2022/10/15 08:32:21;;;;;;;1.75;0.82;;;;;;;14.56;100.00;96894.97;5027919;28;20069;-62
2022/10/15 08:34:48;;;;;;;2.92;0.90;;;;;;;14.61;100.00;96891.38;5028263;28;20128;-63
2022/10/15 08:37:15;;;;;;;2.40;0.70;;;;;;;14.41;100.00;96898.69;5028273;28;20118;-62
2022/10/15 08:39:41;;;;;;;0.70;0.50;;;;;;;14.37;100.00;96900.34;5028388;28;20124;-62
2022/10/15 08:42:18;;;;;;;2.97;0.82;;;;;;;14.47;100.00;96896.72;5027923;28;20034;-62
2022/10/15 08:44:49;;;;;;;1.63;0.75;;;;;;;14.49;100.00;96894.50;5028276;28;20125;-62
2022/10/15 08:47:35;;;;;;;1.25;0.60;;;;;;;14.56;100.00;96897.69;5028236;28;20137;-63
2022/10/15 08:50:16;;;;;;;2.45;0.82;;;;;;;14.53;100.00;96897.47;5008579;28;20038;-62
2022/10/15 08:52:47;;;;;;;4.18;1.50;;;;;;;14.54;100.00;96901.81;5007780;28;20152;-63
2022/10/15 08:55:19;;;;;;;1.92;0.70;;;;;;;14.73;100.00;96903.78;5008232;28;20046;-63
2022/10/15 08:58:18;;;;;;;2.70;0.98;;;;;;;14.70;100.00;96907.91;5008190;28;20125;-62
2022/10/15 09:00:50;;;;;;;2.80;0.85;;;;;;;14.75;100.00;96915.22;5009853;28;20053;-63
2022/10/15 09:03:46;;;;;;;2.67;0.65;;;;;;;14.69;100.00;96911.72;5027847;28;20120;-63
2022/10/15 09:06:34;;;;;;;3.47;0.80;;;;;;;14.63;100.00;96918.34;5028101;28;20049;-63
2022/10/15 09:09:43;;;;;;;1.38;0.50;;;;;;;14.70;100.00;96919.63;5027690;28;20045;-63
2022/10/15 09:12:33;;;;;;;1.33;0.70;;;;;;;14.80;100.00;96916.00;5012323;28;20079;-62
2022/10/15 09:15:02;;;;;;;2.40;0.73;;;;;;;14.81;100.00;96914.06;5020091;28;20069;-62
2022/10/15 09:17:31;;;;;;;2.08;0.70;;;;;;;14.93;100.00;96922.63;5022327;28;20044;-63
2022/10/15 09:20:02;;;;;;;1.85;0.70;;;;;;;15.09;100.00;96914.28;5027296;28;20073;-62
2022/10/15 09:22:30;;;;;;;;;;;;;;;15.32;100.00;96922.69;5033799;28;20045;-62
2022/10/15 09:24:57;;;;;;;6.03;1.67;;;;;;;15.26;100.00;96921.16;5030892;28;19927;-63
2022/10/15 09:27:34;;;;;;;2.00;0.80;;;;;;;15.24;100.00;96926.06;5031978;28;20041;-63
2022/10/15 09:30:20;;;;;;;1.00;0.30;;;;;;;15.39;100.00;96925.88;5031159;28;20051;-62
2022/10/15 09:32:54;;;;;;;1.75;0.90;;;;;;;15.37;100.00;96925.34;5027784;28;20472;-63
2022/10/15 09:35:21;;;;;;;2.13;0.90;;;;;;;15.28;100.00;96927.94;5028705;28;20055;-63
2022/10/15 09:38:02;;;;;;;0.63;0.38;;;;;;;15.26;100.00;96938.31;5030179;28;20116;-63
2022/10/15 09:40:50;;;;;;;0.68;0.40;;;;;;;15.36;100.00;96947.47;5022759;28;20053;-63
2022/10/15 09:43:27;;;;;;;1.73;0.45;;;;;;;15.47;100.00;96943.50;5021500;28;20930;-62
2022/10/15 09:45:53;;;;;;;0.95;0.50;;;;;;;15.47;100.00;96930.66;5023612;28;20045;-62
2022/10/15 09:48:21;;;;;;;0.85;0.30;;;;;;;15.60;100.00;96934.56;5031039;28;20129;-62
2022/10/15 09:51:15;;;;;;;2.42;0.40;;;;;;;15.91;100.00;96938.75;5030943;28;20049;-62
2022/10/15 09:54:02;;;;;;;2.55;0.60;;;;;;;15.90;100.00;96930.84;5034998;28;20421;-62
2022/10/15 09:56:38;;;;;;;5.72;3.20;;;;;;;15.91;100.00;96935.19;5029425;28;20061;-62
2022/10/15 09:59:05;;;;;;;1.00;0.50;;;;;;;15.94;100.00;96930.00;5023584;28;20543;-62
2022/10/15 10:01:35;;;;;;;1.75;0.80;;;;;;;16.03;100.00;96921.91;5019640;28;20045;-62
2022/10/15 10:04:15;;;;;;;4.80;1.45;;;;;;;15.98;100.00;96928.28;5023949;28;20041;-62
2022/10/15 10:06:49;;;;;;;1.23;0.50;;;;;;;16.17;100.00;96932.88;5024721;28;20045;-62
2022/10/15 10:09:37;;;;;;;1.65;0.77;;;;;;;16.25;100.00;96936.84;5021910;28;20037;-62
2022/10/15 10:12:06;;;;;;;5.90;1.55;;;;;;;16.33;100.00;96935.38;5012346;28;20133;-62
2022/10/15 10:14:45;;;;;;;0.88;0.40;;;;;;;16.26;100.00;96938.50;5023543;28;20495;-62
2022/10/15 10:17:21;;;;;;;1.10;0.50;;;;;;;16.42;100.00;96940.94;5024561;28;20136;-62
2022/10/15 10:20:13;;;;;;;1.10;0.30;;;;;;;16.42;100.00;96932.75;5023154;28;20049;-62
2022/10/15 10:22:53;;;;;;;1.27;0.25;;;;;;;16.46;100.00;96945.50;5024190;28;20042;-62
2022/10/15 10:25:26;;;;;;;1.52;0.30;;;;;;;16.64;100.00;96937.53;5023318;28;20140;-62
2022/10/15 10:27:54;;;;;;;1.00;0.10;;;;;;;16.77;96.16;96941.41;5024385;28;20128;-62
2022/10/15 10:30:21;;;;;;;0.20;0.10;;;;;;;16.85;93.56;96948.06;5022615;28;20075;-62
2022/10/15 10:32:56;;;;;;;1.48;0.20;;;;;;;17.00;95.70;96933.28;5024304;28;20045;-62
2022/10/15 10:35:25;;;;;;;0.65;0.20;;;;;;;16.90;93.02;96942.50;5014083;28;20124;-62
2022/10/15 10:37:52;;;;;;;0.93;0.20;;;;;;;16.85;91.49;96939.88;5017098;28;20115;-62
2022/10/15 10:40:33;;;;;;;0.10;0.10;;;;;;;16.87;91.80;96945.84;5024101;28;20460;-62
2022/10/15 10:43:15;;;;;;;3.17;0.35;;;;;;;16.92;92.39;96953.13;5034665;28;20080;-62
2022/10/15 10:45:53;;;;;;;1.77;0.30;;;;;;;16.92;89.57;96947.66;5031077;28;20560;-62
2022/10/15 10:48:36;;;;;;;0.47;0.22;;;;;;;16.99;89.13;96950.81;5035322;28;20497;-63
2022/10/15 10:51:31;;;;;;;1.55;0.30;;;;;;;17.02;89.10;96947.44;5034942;28;20056;-62
2022/10/15 10:54:03;;;;;;;1.75;0.22;;;;;;;17.09;91.40;96942.41;5032909;28;20464;-62
2022/10/15 10:56:36;;;;;;;1.80;0.50;;;;;;;17.03;93.03;96947.16;5028244;28;20068;-62
2022/10/15 10:59:18;;;;;;;0.17;0.10;;;;;;;17.07;89.97;96961.06;5028338;28;20041;-62
2022/10/15 11:01:48;;;;;;;1.95;0.38;;;;;;;17.02;86.81;96945.53;5028751;28;20135;-62
2022/10/15 11:04:35;;;;;;;1.40;0.20;;;;;;;16.92;89.22;96943.03;5030382;28;20060;-63
2022/10/15 11:07:08;;;;;;;3.35;0.35;;;;;;;16.99;90.15;96948.88;5027469;28;20095;-62
2022/10/15 11:10:05;;;;;;;1.13;0.20;;;;;;;17.12;87.57;96944.56;5029986;28;20049;-62
2022/10/15 11:12:39;;;;;;;0.68;0.40;;;;;;;17.01;88.56;96945.84;5029186;28;20033;-62
2022/10/15 11:15:08;;;;;;;0.75;0.30;;;;;;;17.11;86.64;96947.59;5028751;28;20046;-62
2022/10/15 11:17:46;;;;;;;1.02;0.30;;;;;;;17.15;89.04;96946.66;5030035;28;20083;-62
2022/10/15 11:20:12;;;;;;;1.70;0.40;;;;;;;17.33;88.14;96940.56;5037934;28;20041;-62
2022/10/15 11:23:42;;;;;;;1.58;0.30;;;;;;;17.51;89.11;96928.66;5037943;28;20564;-62
2022/10/15 11:26:24;;;;;;;2.97;0.38;;;;;;;17.35;88.65;96941.88;5036578;28;20627;-62
2022/10/15 11:29:09;;;;;;;1.85;0.40;;;;;;;17.40;85.67;96930.03;5035219;28;20218;-62
2022/10/15 11:32:10;;;;;;;2.72;0.32;;;;;;;17.48;85.56;96925.72;5036126;28;20106;-63
2022/10/15 11:34:45;;;;;;;3.78;0.50;;;;;;;17.42;85.69;96914.09;5029027;28;20076;-63
2022/10/15 11:37:43;;;;;;;1.38;0.50;;;;;;;17.53;85.44;96903.72;5030297;28;20050;-63
2022/10/15 11:40:18;;;;;;;2.25;0.50;;;;;;;17.60;85.32;96912.31;5027911;28;20069;-62
2022/10/15 11:42:48;;;;;;;1.20;0.60;;;;;;;17.58;85.01;96911.00;5025827;28;20050;-63
2022/10/15 11:45:47;;;;;;;2.40;0.40;;;;;;;17.58;83.98;96913.75;5030105;28;20124;-63
2022/10/15 11:48:32;;;;;;;2.20;0.47;;;;;;;17.57;84.77;96915.66;5030147;28;20053;-63
2022/10/15 11:51:08;;;;;;;0.70;0.30;;;;;;;17.40;84.84;96913.59;5028383;28;20467;-63